Terminal Aerodrome Forecast
Issued by NWS

Home | Current Version | Previous Version | Text Only | Print | Product List | Glossary Off
Versions: 1 2 3 4 5 6 7 8 9 10 11 12

000
FTUS45 KGGW 262335
TAFOLF
TAF
KOLF 262335Z 2700/2724 10008KT P6SM FEW180
     FM271100 07009KT P6SM BKN080
     FM272200 09010KT P6SM BKN090=

USA.gov is the U.S. government's official web portal to all federal, state and local government web resources and services.